sensor_id;sensor_type;location;lat;lon;timestamp;pressure;altitude;pressure_sealevel;temperature;humidity
16461;BME280;8341;42.048;24.650;2023-06-24T00:02:08;97265.31;;;23.34;87.73
16461;BME280;8341;42.048;24.650;2023-06-24T00:04:34;97260.88;;;23.31;86.91
16461;BME280;8341;42.048;24.650;2023-06-24T00:07:01;97261.22;;;23.35;85.74
16461;BME280;8341;42.048;24.650;2023-06-24T00:09:30;97265.16;;;23.40;85.43
16461;BME280;8341;42.048;24.650;2023-06-24T00:11:57;97259.78;;;23.42;85.44
16461;BME280;8341;42.048;24.650;2023-06-24T00:14:26;97261.06;;;23.41;85.35
16461;BME280;8341;42.048;24.650;2023-06-24T00:16:54;97253.84;;;23.38;85.81
16461;BME280;8341;42.048;24.650;2023-06-24T00:19:22;97245.09;;;23.34;85.57
16461;BME280;8341;42.048;24.650;2023-06-24T00:21:50;97246.75;;;23.29;86.05
16461;BME280;8341;42.048;24.650;2023-06-24T00:24:17;97239.34;;;23.24;86.92
16461;BME280;8341;42.048;24.650;2023-06-24T00:26:47;97235.63;;;23.06;87.84
16461;BME280;8341;42.048;24.650;2023-06-24T00:29:14;97241.59;;;23.11;87.14
16461;BME280;8341;42.048;24.650;2023-06-24T00:31:41;97231.75;;;23.10;86.66
16461;BME280;8341;42.048;24.650;2023-06-24T00:34:08;97239.34;;;22.86;88.29
16461;BME280;8341;42.048;24.650;2023-06-24T00:36:35;97228.41;;;22.88;88.07
16461;BME280;8341;42.048;24.650;2023-06-24T00:39:03;97237.13;;;22.92;88.35
16461;BME280;8341;42.048;24.650;2023-06-24T00:41:30;97226.00;;;22.70;89.39
16461;BME280;8341;42.048;24.650;2023-06-24T00:43:59;97233.91;;;22.58;88.82
16461;BME280;8341;42.048;24.650;2023-06-24T00:46:26;97224.16;;;22.72;89.74
16461;BME280;8341;42.048;24.650;2023-06-24T00:48:56;97230.06;;;22.76;89.93
16461;BME280;8341;42.048;24.650;2023-06-24T00:51:23;97229.50;;;22.70;91.23
16461;BME280;8341;42.048;24.650;2023-06-24T00:53:51;97225.44;;;22.71;88.45
16461;BME280;8341;42.048;24.650;2023-06-24T00:56:19;97218.94;;;22.76;88.62
16461;BME280;8341;42.048;24.650;2023-06-24T00:58:48;97207.09;;;22.83;87.96
16461;BME280;8341;42.048;24.650;2023-06-24T01:01:17;97220.06;;;22.88;87.50
16461;BME280;8341;42.048;24.650;2023-06-24T01:03:45;97215.63;;;22.85;86.29
16461;BME280;8341;42.048;24.650;2023-06-24T01:06:13;97215.44;;;22.83;89.18
16461;BME280;8341;42.048;24.650;2023-06-24T01:08:40;97213.38;;;22.76;88.03
16461;BME280;8341;42.048;24.650;2023-06-24T01:11:07;97217.84;;;22.64;89.15
16461;BME280;8341;42.048;24.650;2023-06-24T01:13:34;97210.19;;;22.57;89.44
16461;BME280;8341;42.048;24.650;2023-06-24T01:16:06;97212.03;;;22.55;88.26
16461;BME280;8341;42.048;24.650;2023-06-24T01:18:43;97213.91;;;22.60;87.97
16461;BME280;8341;42.048;24.650;2023-06-24T01:21:21;97217.78;;;22.57;90.47
16461;BME280;8341;42.048;24.650;2023-06-24T01:27:24;97214.09;;;22.54;90.66
16461;BME280;8341;42.048;24.650;2023-06-24T01:32:54;97212.38;;;22.36;89.64
16461;BME280;8341;42.048;24.650;2023-06-24T01:35:29;97206.25;;;22.37;91.05
16461;BME280;8341;42.048;24.650;2023-06-24T01:37:59;97202.94;;;22.39;91.01
16461;BME280;8341;42.048;24.650;2023-06-24T01:40:31;97204.06;;;22.43;91.62
16461;BME280;8341;42.048;24.650;2023-06-24T01:43:01;97194.22;;;22.35;92.01
16461;BME280;8341;42.048;24.650;2023-06-24T01:45:32;97207.75;;;22.38;92.25
16461;BME280;8341;42.048;24.650;2023-06-24T01:48:07;97191.59;;;22.22;91.86
16461;BME280;8341;42.048;24.650;2023-06-24T01:50:36;97210.53;;;22.38;91.56
16461;BME280;8341;42.048;24.650;2023-06-24T01:53:06;97212.53;;;22.30;91.56
16461;BME280;8341;42.048;24.650;2023-06-24T01:55:34;97210.13;;;22.27;91.85
16461;BME280;8341;42.048;24.650;2023-06-24T01:58:05;97212.09;;;22.11;93.90
16461;BME280;8341;42.048;24.650;2023-06-24T02:00:34;97216.16;;;22.03;92.96
16461;BME280;8341;42.048;24.650;2023-06-24T02:03:04;97208.78;;;22.13;91.93
16461;BME280;8341;42.048;24.650;2023-06-24T02:05:32;97207.47;;;22.14;91.85
16461;BME280;8341;42.048;24.650;2023-06-24T02:08:02;97220.81;;;22.08;90.10
16461;BME280;8341;42.048;24.650;2023-06-24T02:10:29;97223.91;;;21.97;90.81
16461;BME280;8341;42.048;24.650;2023-06-24T02:12:57;97223.44;;;22.13;92.30
16461;BME280;8341;42.048;24.650;2023-06-24T02:15:26;97223.97;;;22.12;90.93
16461;BME280;8341;42.048;24.650;2023-06-24T02:17:55;97224.31;;;22.01;92.42
16461;BME280;8341;42.048;24.650;2023-06-24T02:20:25;97234.63;;;21.93;95.15
16461;BME280;8341;42.048;24.650;2023-06-24T02:22:54;97243.94;;;22.03;94.48
16461;BME280;8341;42.048;24.650;2023-06-24T02:25:22;97237.06;;;22.04;94.02
16461;BME280;8341;42.048;24.650;2023-06-24T02:27:50;97252.75;;;21.94;94.34
16461;BME280;8341;42.048;24.650;2023-06-24T02:30:18;97258.91;;;22.00;94.04
16461;BME280;8341;42.048;24.650;2023-06-24T02:32:46;97262.41;;;21.93;94.45
16461;BME280;8341;42.048;24.650;2023-06-24T02:35:13;97267.88;;;21.85;95.83
16461;BME280;8341;42.048;24.650;2023-06-24T02:37:41;97263.97;;;21.80;95.14
16461;BME280;8341;42.048;24.650;2023-06-24T02:40:09;97268.31;;;21.89;94.73
16461;BME280;8341;42.048;24.650;2023-06-24T02:42:36;97268.97;;;21.82;94.40
16461;BME280;8341;42.048;24.650;2023-06-24T02:45:05;97271.41;;;21.86;95.32
16461;BME280;8341;42.048;24.650;2023-06-24T02:47:33;97277.84;;;21.80;95.50
16461;BME280;8341;42.048;24.650;2023-06-24T02:50:00;97280.84;;;21.82;95.75
16461;BME280;8341;42.048;24.650;2023-06-24T02:52:28;97273.59;;;21.79;95.53
16461;BME280;8341;42.048;24.650;2023-06-24T02:54:57;97277.84;;;21.80;96.93
16461;BME280;8341;42.048;24.650;2023-06-24T02:57:24;97283.69;;;21.90;99.02
16461;BME280;8341;42.048;24.650;2023-06-24T02:59:52;97284.22;;;21.89;97.10
16461;BME280;8341;42.048;24.650;2023-06-24T03:02:19;97289.47;;;22.00;97.13
16461;BME280;8341;42.048;24.650;2023-06-24T03:04:47;97290.56;;;21.97;94.01
16461;BME280;8341;42.048;24.650;2023-06-24T03:07:15;97283.13;;;21.92;95.95
16461;BME280;8341;42.048;24.650;2023-06-24T03:09:46;97282.25;;;22.04;95.16
16461;BME280;8341;42.048;24.650;2023-06-24T03:12:14;97279.31;;;22.10;95.42
16461;BME280;8341;42.048;24.650;2023-06-24T03:14:41;97283.59;;;22.11;94.14
16461;BME280;8341;42.048;24.650;2023-06-24T03:17:07;97273.38;;;22.06;93.32
16461;BME280;8341;42.048;24.650;2023-06-24T03:19:34;97276.34;;;22.08;93.68
16461;BME280;8341;42.048;24.650;2023-06-24T03:22:02;97261.91;;;22.09;92.74
16461;BME280;8341;42.048;24.650;2023-06-24T03:24:29;97268.34;;;21.97;93.80
16461;BME280;8341;42.048;24.650;2023-06-24T03:26:56;97275.78;;;22.09;93.83
16461;BME280;8341;42.048;24.650;2023-06-24T03:29:24;97256.91;;;22.08;92.66
16461;BME280;8341;42.048;24.650;2023-06-24T03:31:51;97268.47;;;22.34;91.29
16461;BME280;8341;42.048;24.650;2023-06-24T03:34:18;97273.38;;;22.49;90.42
16461;BME280;8341;42.048;24.650;2023-06-24T03:36:45;97280.56;;;22.52;90.30
16461;BME280;8341;42.048;24.650;2023-06-24T03:39:11;97278.53;;;22.45;90.46
16461;BME280;8341;42.048;24.650;2023-06-24T03:41:38;97286.69;;;22.43;90.77
16461;BME280;8341;42.048;24.650;2023-06-24T03:44:05;97291.91;;;22.54;89.71
16461;BME280;8341;42.048;24.650;2023-06-24T03:46:33;97276.69;;;22.48;88.87
16461;BME280;8341;42.048;24.650;2023-06-24T03:49:00;97278.34;;;22.43;89.40
16461;BME280;8341;42.048;24.650;2023-06-24T03:51:27;97276.31;;;22.51;89.37
16461;BME280;8341;42.048;24.650;2023-06-24T03:53:53;97282.31;;;22.63;88.93
16461;BME280;8341;42.048;24.650;2023-06-24T03:56:20;97273.75;;;22.61;89.21
16461;BME280;8341;42.048;24.650;2023-06-24T03:58:47;97280.81;;;22.62;90.38
16461;BME280;8341;42.048;24.650;2023-06-24T04:01:14;97283.06;;;22.63;90.02
16461;BME280;8341;42.048;24.650;2023-06-24T04:03:45;97277.13;;;22.67;89.97
16461;BME280;8341;42.048;24.650;2023-06-24T04:06:12;97274.34;;;22.67;89.14
16461;BME280;8341;42.048;24.650;2023-06-24T04:08:39;97271.53;;;22.59;89.91
16461;BME280;8341;42.048;24.650;2023-06-24T04:11:09;97267.47;;;22.68;90.80
16461;BME280;8341;42.048;24.650;2023-06-24T04:13:37;97270.47;;;22.70;89.96
16461;BME280;8341;42.048;24.650;2023-06-24T04:16:04;97276.06;;;23.00;88.72
16461;BME280;8341;42.048;24.650;2023-06-24T04:18:30;97282.88;;;24.52;80.90
16461;BME280;8341;42.048;24.650;2023-06-24T04:20:58;97293.28;;;26.34;70.24
16461;BME280;8341;42.048;24.650;2023-06-24T04:23:25;97300.13;;;27.76;63.13
16461;BME280;8341;42.048;24.650;2023-06-24T04:25:52;97313.09;;;28.96;57.36
16461;BME280;8341;42.048;24.650;2023-06-24T04:46:23;97344.63;;;32.46;44.76
16461;BME280;8341;42.048;24.650;2023-06-24T04:48:49;97351.31;;;32.27;44.14
16461;BME280;8341;42.048;24.650;2023-06-24T04:51:16;97360.56;;;32.78;43.66
16461;BME280;8341;42.048;24.650;2023-06-24T04:53:43;97362.28;;;31.86;44.84
16461;BME280;8341;42.048;24.650;2023-06-24T04:56:10;97370.88;;;31.65;45.95
16461;BME280;8341;42.048;24.650;2023-06-24T04:58:36;97369.78;;;30.91;48.01
16461;BME280;8341;42.048;24.650;2023-06-24T05:01:03;97368.75;;;30.54;48.94
16461;BME280;8341;42.048;24.650;2023-06-24T05:03:31;97369.97;;;30.08;50.71
16461;BME280;8341;42.048;24.650;2023-06-24T05:05:58;97366.88;;;29.52;52.39
16461;BME280;8341;42.048;24.650;2023-06-24T05:08:25;97371.94;;;28.75;55.41
16461;BME280;8341;42.048;24.650;2023-06-24T05:10:52;97366.59;;;28.41;57.00
16461;BME280;8341;42.048;24.650;2023-06-24T05:13:18;97357.44;;;28.12;58.07
16461;BME280;8341;42.048;24.650;2023-06-24T05:15:45;97352.66;;;27.85;59.30
16461;BME280;8341;42.048;24.650;2023-06-24T05:18:12;97352.91;;;27.34;62.25
16461;BME280;8341;42.048;24.650;2023-06-24T05:20:40;97356.97;;;27.14;63.89
16461;BME280;8341;42.048;24.650;2023-06-24T05:23:07;97354.00;;;26.68;65.26
16461;BME280;8341;42.048;24.650;2023-06-24T05:25:34;97359.06;;;26.52;66.77
16461;BME280;8341;42.048;24.650;2023-06-24T05:28:00;97357.41;;;26.32;68.61
16461;BME280;8341;42.048;24.650;2023-06-24T05:30:27;97352.38;;;26.48;67.75
16461;BME280;8341;42.048;24.650;2023-06-24T05:32:54;97356.41;;;26.54;67.00
16461;BME280;8341;42.048;24.650;2023-06-24T05:35:21;97353.13;;;26.48;67.64
16461;BME280;8341;42.048;24.650;2023-06-24T05:37:49;97359.53;;;26.41;67.15
16461;BME280;8341;42.048;24.650;2023-06-24T05:40:16;97360.28;;;26.42;67.31
16461;BME280;8341;42.048;24.650;2023-06-24T05:42:42;97359.03;;;26.35;65.97
16461;BME280;8341;42.048;24.650;2023-06-24T05:45:10;97360.03;;;26.47;65.62
16461;BME280;8341;42.048;24.650;2023-06-24T05:47:37;97352.63;;;26.25;66.83
16461;BME280;8341;42.048;24.650;2023-06-24T05:50:05;97357.06;;;26.45;67.02
16461;BME280;8341;42.048;24.650;2023-06-24T05:52:31;97339.66;;;26.37;67.37
16461;BME280;8341;42.048;24.650;2023-06-24T05:55:00;97349.16;;;26.51;65.84
16461;BME280;8341;42.048;24.650;2023-06-24T05:57:27;97351.31;;;26.43;65.72
16461;BME280;8341;42.048;24.650;2023-06-24T05:59:54;97354.22;;;26.19;67.69
16461;BME280;8341;42.048;24.650;2023-06-24T06:02:20;97354.03;;;26.34;66.41
16461;BME280;8341;42.048;24.650;2023-06-24T06:04:47;97352.16;;;26.36;66.31
16461;BME280;8341;42.048;24.650;2023-06-24T06:07:14;97357.06;;;26.45;66.32
16461;BME280;8341;42.048;24.650;2023-06-24T06:09:41;97354.56;;;26.66;66.09
16461;BME280;8341;42.048;24.650;2023-06-24T06:12:10;97351.94;;;26.68;66.82
16461;BME280;8341;42.048;24.650;2023-06-24T06:14:37;97349.47;;;26.72;65.26
16461;BME280;8341;42.048;24.650;2023-06-24T06:17:04;97342.38;;;26.71;64.52
16461;BME280;8341;42.048;24.650;2023-06-24T06:19:31;97345.94;;;26.72;65.96
16461;BME280;8341;42.048;24.650;2023-06-24T06:21:58;97340.63;;;26.93;66.01
16461;BME280;8341;42.048;24.650;2023-06-24T06:24:25;97330.06;;;27.01;65.11
16461;BME280;8341;42.048;24.650;2023-06-24T06:26:51;97328.38;;;27.15;65.22
16461;BME280;8341;42.048;24.650;2023-06-24T06:29:20;97332.38;;;27.22;63.82
16461;BME280;8341;42.048;24.650;2023-06-24T06:31:46;97329.78;;;27.33;63.56
16461;BME280;8341;42.048;24.650;2023-06-24T06:34:13;97318.06;;;27.45;64.79
16461;BME280;8341;42.048;24.650;2023-06-24T06:36:40;97324.06;;;27.41;62.25
16461;BME280;8341;42.048;24.650;2023-06-24T06:39:07;97321.28;;;27.51;63.26
16461;BME280;8341;42.048;24.650;2023-06-24T06:41:33;97317.59;;;27.48;62.59
16461;BME280;8341;42.048;24.650;2023-06-24T06:44:00;97328.41;;;27.25;63.25
16461;BME280;8341;42.048;24.650;2023-06-24T06:46:29;97314.72;;;27.29;63.31
16461;BME280;8341;42.048;24.650;2023-06-24T06:48:56;97328.00;;;27.38;63.37
16461;BME280;8341;42.048;24.650;2023-06-24T06:51:23;97313.97;;;27.28;63.88
16461;BME280;8341;42.048;24.650;2023-06-24T06:53:51;97320.19;;;27.37;62.82
16461;BME280;8341;42.048;24.650;2023-06-24T06:56:18;97327.38;;;27.30;64.96
16461;BME280;8341;42.048;24.650;2023-06-24T06:58:45;97321.91;;;27.22;66.16
16461;BME280;8341;42.048;24.650;2023-06-24T07:01:12;97328.88;;;27.31;65.35
16461;BME280;8341;42.048;24.650;2023-06-24T07:03:40;97327.09;;;27.26;65.16
16461;BME280;8341;42.048;24.650;2023-06-24T07:06:07;97321.41;;;27.43;64.88
16461;BME280;8341;42.048;24.650;2023-06-24T07:08:34;97322.94;;;27.63;64.98
16461;BME280;8341;42.048;24.650;2023-06-24T07:11:01;97307.59;;;27.55;64.09
16461;BME280;8341;42.048;24.650;2023-06-24T07:13:28;97323.66;;;27.54;64.25
16461;BME280;8341;42.048;24.650;2023-06-24T07:15:54;97311.56;;;27.42;64.34
16461;BME280;8341;42.048;24.650;2023-06-24T07:18:21;97321.50;;;27.26;64.45
16461;BME280;8341;42.048;24.650;2023-06-24T07:20:49;97317.19;;;27.25;64.05
16461;BME280;8341;42.048;24.650;2023-06-24T07:23:16;97309.41;;;27.33;64.15
16461;BME280;8341;42.048;24.650;2023-06-24T07:25:43;97313.00;;;27.43;62.91
16461;BME280;8341;42.048;24.650;2023-06-24T07:28:10;97309.41;;;27.69;63.98
16461;BME280;8341;42.048;24.650;2023-06-24T07:30:36;97305.91;;;27.78;62.80
16461;BME280;8341;42.048;24.650;2023-06-24T07:33:03;97319.78;;;27.86;60.98
16461;BME280;8341;42.048;24.650;2023-06-24T07:35:31;97321.38;;;27.79;63.38
16461;BME280;8341;42.048;24.650;2023-06-24T07:38:00;97310.63;;;27.85;61.82
16461;BME280;8341;42.048;24.650;2023-06-24T07:40:27;97321.72;;;28.03;61.94
16461;BME280;8341;42.048;24.650;2023-06-24T07:42:54;97314.44;;;27.80;60.59
16461;BME280;8341;42.048;24.650;2023-06-24T07:45:20;97324.34;;;28.01;61.02
16461;BME280;8341;42.048;24.650;2023-06-24T07:47:47;97317.38;;;27.82;61.14
16461;BME280;8341;42.048;24.650;2023-06-24T07:50:14;97310.19;;;27.99;60.94
16461;BME280;8341;42.048;24.650;2023-06-24T07:52:41;97312.59;;;28.12;60.51
16461;BME280;8341;42.048;24.650;2023-06-24T07:55:10;97317.44;;;28.21;60.54
16461;BME280;8341;42.048;24.650;2023-06-24T07:57:37;97319.97;;;28.26;58.03
16461;BME280;8341;42.048;24.650;2023-06-24T08:00:07;97319.66;;;28.13;59.00
16461;BME280;8341;42.048;24.650;2023-06-24T08:02:36;97328.34;;;28.07;59.80
16461;BME280;8341;42.048;24.650;2023-06-24T08:05:03;97340.19;;;28.15;59.48
16461;BME280;8341;42.048;24.650;2023-06-24T08:07:30;97332.50;;;28.06;61.50
16461;BME280;8341;42.048;24.650;2023-06-24T08:09:57;97337.53;;;28.27;59.09
16461;BME280;8341;42.048;24.650;2023-06-24T08:12:26;97325.28;;;28.32;59.34
16461;BME280;8341;42.048;24.650;2023-06-24T08:14:52;97331.91;;;28.46;59.36
16461;BME280;8341;42.048;24.650;2023-06-24T08:17:19;97340.03;;;28.61;59.81
16461;BME280;8341;42.048;24.650;2023-06-24T08:19:46;97332.19;;;28.69;56.85
16461;BME280;8341;42.048;24.650;2023-06-24T08:22:13;97341.53;;;28.62;58.73
16461;BME280;8341;42.048;24.650;2023-06-24T08:24:40;97337.22;;;28.42;55.84
16461;BME280;8341;42.048;24.650;2023-06-24T08:27:06;97332.94;;;28.60;57.33
16461;BME280;8341;42.048;24.650;2023-06-24T08:29:35;97332.03;;;28.86;57.06
16461;BME280;8341;42.048;24.650;2023-06-24T08:32:04;97325.56;;;28.55;55.51
16461;BME280;8341;42.048;24.650;2023-06-24T08:34:32;97331.72;;;28.82;56.83
16461;BME280;8341;42.048;24.650;2023-06-24T08:36:59;97322.84;;;28.95;54.86
16461;BME280;8341;42.048;24.650;2023-06-24T08:39:25;97331.16;;;28.74;56.43
16461;BME280;8341;42.048;24.650;2023-06-24T08:41:52;97327.59;;;28.83;56.33
16461;BME280;8341;42.048;24.650;2023-06-24T08:44:19;97331.53;;;28.99;55.99
16461;BME280;8341;42.048;24.650;2023-06-24T08:46:48;97324.03;;;28.92;54.64
16461;BME280;8341;42.048;24.650;2023-06-24T08:49:27;97332.13;;;28.98;54.73
16461;BME280;8341;42.048;24.650;2023-06-24T08:52:00;97330.03;;;29.08;55.56
16461;BME280;8341;42.048;24.650;2023-06-24T08:54:28;97328.97;;;29.23;54.20
16461;BME280;8341;42.048;24.650;2023-06-24T08:56:54;97331.06;;;29.53;55.58
16461;BME280;8341;42.048;24.650;2023-06-24T08:59:21;97333.50;;;29.68;54.52
16461;BME280;8341;42.048;24.650;2023-06-24T09:01:50;97324.56;;;29.50;52.33
16461;BME280;8341;42.048;24.650;2023-06-24T09:04:17;97337.38;;;29.32;52.59
16461;BME280;8341;42.048;24.650;2023-06-24T09:06:44;97334.53;;;29.42;53.86
16461;BME280;8341;42.048;24.650;2023-06-24T09:09:17;97323.91;;;29.31;54.11
16461;BME280;8341;42.048;24.650;2023-06-24T09:11:51;97323.78;;;29.29;52.25
16461;BME280;8341;42.048;24.650;2023-06-24T09:14:18;97323.16;;;29.30;53.15
16461;BME280;8341;42.048;24.650;2023-06-24T09:16:52;97322.59;;;29.62;52.90
16461;BME280;8341;42.048;24.650;2023-06-24T09:19:22;97334.06;;;29.76;52.44
16461;BME280;8341;42.048;24.650;2023-06-24T09:21:50;97325.31;;;29.72;53.00
16461;BME280;8341;42.048;24.650;2023-06-24T09:24:18;97320.09;;;29.57;50.30
16461;BME280;8341;42.048;24.650;2023-06-24T09:26:45;97324.19;;;29.65;51.01
16461;BME280;8341;42.048;24.650;2023-06-24T09:29:12;97325.78;;;29.47;51.42
16461;BME280;8341;42.048;24.650;2023-06-24T09:31:49;97311.03;;;29.68;51.00
16461;BME280;8341;42.048;24.650;2023-06-24T09:34:19;97309.03;;;30.01;52.20
16461;BME280;8341;42.048;24.650;2023-06-24T09:36:51;97301.47;;;30.04;49.70
16461;BME280;8341;42.048;24.650;2023-06-24T09:39:18;97300.03;;;30.35;50.08
16461;BME280;8341;42.048;24.650;2023-06-24T09:41:48;97288.63;;;30.33;49.02
16461;BME280;8341;42.048;24.650;2023-06-24T09:44:16;97288.00;;;30.56;50.49
16461;BME280;8341;42.048;24.650;2023-06-24T09:46:44;97290.22;;;30.58;48.06
16461;BME280;8341;42.048;24.650;2023-06-24T09:49:11;97277.94;;;30.42;48.26
16461;BME280;8341;42.048;24.650;2023-06-24T09:51:42;97265.53;;;30.68;49.27
16461;BME280;8341;42.048;24.650;2023-06-24T09:54:10;97262.94;;;30.72;49.10
16461;BME280;8341;42.048;24.650;2023-06-24T09:56:40;97256.91;;;30.98;48.63
16461;BME280;8341;42.048;24.650;2023-06-24T09:59:09;97253.09;;;31.17;47.16
16461;BME280;8341;42.048;24.650;2023-06-24T10:01:40;97242.69;;;31.20;47.43
16461;BME280;8341;42.048;24.650;2023-06-24T10:04:07;97247.22;;;31.48;47.88
16461;BME280;8341;42.048;24.650;2023-06-24T10:06:34;97253.72;;;31.50;47.79
16461;BME280;8341;42.048;24.650;2023-06-24T10:09:04;97246.13;;;31.53;46.47
16461;BME280;8341;42.048;24.650;2023-06-24T10:11:31;97239.34;;;31.58;47.77
16461;BME280;8341;42.048;24.650;2023-06-24T10:13:57;97226.34;;;31.65;48.29
16461;BME280;8341;42.048;24.650;2023-06-24T10:16:24;97228.31;;;31.62;47.89
16461;BME280;8341;42.048;24.650;2023-06-24T10:18:51;97230.38;;;31.73;49.41
16461;BME280;8341;42.048;24.650;2023-06-24T10:21:19;97235.84;;;31.83;46.62
16461;BME280;8341;42.048;24.650;2023-06-24T10:23:51;97232.25;;;32.05;48.14
16461;BME280;8341;42.048;24.650;2023-06-24T10:26:24;97233.78;;;32.20;47.13
16461;BME280;8341;42.048;24.650;2023-06-24T10:29:10;97236.72;;;32.22;46.29
16461;BME280;8341;42.048;24.650;2023-06-24T10:31:52;97228.06;;;32.06;47.75
16461;BME280;8341;42.048;24.650;2023-06-24T10:34:24;97224.91;;;32.26;46.31
16461;BME280;8341;42.048;24.650;2023-06-24T10:36:53;97218.28;;;32.07;47.10
16461;BME280;8341;42.048;24.650;2023-06-24T10:39:35;97220.16;;;31.80;47.86
16461;BME280;8341;42.048;24.650;2023-06-24T10:42:36;97210.13;;;31.77;48.75
16461;BME280;8341;42.048;24.650;2023-06-24T10:45:17;97212.16;;;31.88;47.73
16461;BME280;8341;42.048;24.650;2023-06-24T10:47:46;97209.63;;;31.80;47.17
16461;BME280;8341;42.048;24.650;2023-06-24T10:50:14;97200.88;;;31.51;47.37
16461;BME280;8341;42.048;24.650;2023-06-24T10:52:42;97200.47;;;31.68;48.26
16461;BME280;8341;42.048;24.650;2023-06-24T10:55:09;97190.16;;;31.98;47.97
16461;BME280;8341;42.048;24.650;2023-06-24T10:57:38;97196.63;;;31.87;47.89
16461;BME280;8341;42.048;24.650;2023-06-24T11:00:06;97192.88;;;32.07;47.66
16461;BME280;8341;42.048;24.650;2023-06-24T11:02:32;97186.94;;;32.15;47.58
16461;BME280;8341;42.048;24.650;2023-06-24T11:05:01;97180.13;;;32.06;45.87
16461;BME280;8341;42.048;24.650;2023-06-24T11:07:30;97182.31;;;32.08;47.28
16461;BME280;8341;42.048;24.650;2023-06-24T11:10:01;97177.69;;;32.01;46.54
16461;BME280;8341;42.048;24.650;2023-06-24T11:12:31;97173.53;;;31.90;44.88
16461;BME280;8341;42.048;24.650;2023-06-24T11:15:01;97165.66;;;32.00;47.22
16461;BME280;8341;42.048;24.650;2023-06-24T11:17:28;97158.75;;;32.29;46.58
16461;BME280;8341;42.048;24.650;2023-06-24T11:19:56;97158.16;;;32.44;44.75
16461;BME280;8341;42.048;24.650;2023-06-24T11:22:23;97152.72;;;32.34;44.40
16461;BME280;8341;42.048;24.650;2023-06-24T11:24:51;97155.91;;;32.54;45.60
16461;BME280;8341;42.048;24.650;2023-06-24T11:27:24;97152.22;;;32.51;46.01
16461;BME280;8341;42.048;24.650;2023-06-24T11:29:51;97149.03;;;32.70;46.24
16461;BME280;8341;42.048;24.650;2023-06-24T11:32:20;97146.47;;;32.49;43.57
16461;BME280;8341;42.048;24.650;2023-06-24T11:34:47;97151.75;;;32.68;42.87
16461;BME280;8341;42.048;24.650;2023-06-24T11:37:15;97138.59;;;32.87;42.69
16461;BME280;8341;42.048;24.650;2023-06-24T11:39:43;97134.81;;;32.96;43.80
16461;BME280;8341;42.048;24.650;2023-06-24T11:42:10;97147.50;;;32.95;42.21
16461;BME280;8341;42.048;24.650;2023-06-24T11:44:41;97143.84;;;33.06;42.47
16461;BME280;8341;42.048;24.650;2023-06-24T11:47:10;97137.34;;;32.76;40.18
16461;BME280;8341;42.048;24.650;2023-06-24T11:49:49;97128.66;;;32.86;42.14
16461;BME280;8341;42.048;24.650;2023-06-24T11:52:16;97120.91;;;33.13;42.41
16461;BME280;8341;42.048;24.650;2023-06-24T11:54:43;97128.00;;;32.87;40.49
16461;BME280;8341;42.048;24.650;2023-06-24T11:57:11;97127.53;;;33.18;39.07
16461;BME280;8341;42.048;24.650;2023-06-24T11:59:38;97127.06;;;33.37;40.30
16461;BME280;8341;42.048;24.650;2023-06-24T12:02:05;97120.47;;;33.32;39.48
16461;BME280;8341;42.048;24.650;2023-06-24T12:04:32;97122.47;;;33.30;38.05
16461;BME280;8341;42.048;24.650;2023-06-24T12:07:01;97117.06;;;33.50;40.01
16461;BME280;8341;42.048;24.650;2023-06-24T12:09:28;97115.72;;;33.51;38.30
16461;BME280;8341;42.048;24.650;2023-06-24T12:11:55;97083.97;;;33.52;39.14
16461;BME280;8341;42.048;24.650;2023-06-24T12:14:22;97110.69;;;33.49;37.08
16461;BME280;8341;42.048;24.650;2023-06-24T12:16:49;97112.59;;;33.31;38.85
16461;BME280;8341;42.048;24.650;2023-06-24T12:19:16;97107.19;;;33.21;40.20
16461;BME280;8341;42.048;24.650;2023-06-24T12:21:42;97090.78;;;33.18;41.50
16461;BME280;8341;42.048;24.650;2023-06-24T12:24:11;97094.84;;;32.88;42.05
16461;BME280;8341;42.048;24.650;2023-06-24T12:26:38;97087.72;;;33.14;42.29
16461;BME280;8341;42.048;24.650;2023-06-24T12:29:05;97088.94;;;33.38;40.96
16461;BME280;8341;42.048;24.650;2023-06-24T12:31:32;97072.06;;;33.40;41.62
16461;BME280;8341;42.048;24.650;2023-06-24T12:33:59;97057.16;;;33.53;41.19
16461;BME280;8341;42.048;24.650;2023-06-24T12:36:26;97071.00;;;33.47;41.36
16461;BME280;8341;42.048;24.650;2023-06-24T12:38:53;97066.25;;;33.65;39.91
16461;BME280;8341;42.048;24.650;2023-06-24T12:41:21;97058.44;;;33.50;39.41
16461;BME280;8341;42.048;24.650;2023-06-24T12:43:48;97051.63;;;33.55;40.29
16461;BME280;8341;42.048;24.650;2023-06-24T12:46:14;97054.88;;;33.20;38.46
16461;BME280;8341;42.048;24.650;2023-06-24T12:48:42;97053.13;;;32.72;39.87
16461;BME280;8341;42.048;24.650;2023-06-24T12:51:09;97042.78;;;32.63;39.63
16461;BME280;8341;42.048;24.650;2023-06-24T12:53:36;97048.91;;;32.87;39.34
16461;BME280;8341;42.048;24.650;2023-06-24T12:56:03;97031.97;;;32.87;39.23
16461;BME280;8341;42.048;24.650;2023-06-24T12:58:31;97029.31;;;33.18;40.42
16461;BME280;8341;42.048;24.650;2023-06-24T13:00:58;97019.13;;;33.27;38.04
16461;BME280;8341;42.048;24.650;2023-06-24T13:03:25;97015.53;;;33.11;38.61
16461;BME280;8341;42.048;24.650;2023-06-24T13:05:52;97021.81;;;32.96;38.18
16461;BME280;8341;42.048;24.650;2023-06-24T13:08:19;97016.94;;;32.69;39.47
16461;BME280;8341;42.048;24.650;2023-06-24T13:10:45;97020.81;;;32.75;39.21
16461;BME280;8341;42.048;24.650;2023-06-24T13:13:12;97021.97;;;32.57;39.77
16461;BME280;8341;42.048;24.650;2023-06-24T13:15:40;97031.06;;;32.69;40.55
16461;BME280;8341;42.048;24.650;2023-06-24T13:18:07;97028.03;;;32.65;39.86
16461;BME280;8341;42.048;24.650;2023-06-24T13:20:34;97027.28;;;32.51;40.25
16461;BME280;8341;42.048;24.650;2023-06-24T13:23:01;97013.25;;;32.39;40.62
16461;BME280;8341;42.048;24.650;2023-06-24T13:25:27;97013.56;;;32.18;41.82
16461;BME280;8341;42.048;24.650;2023-06-24T13:27:54;97016.16;;;32.00;43.07
16461;BME280;8341;42.048;24.650;2023-06-24T13:30:21;97010.47;;;31.87;42.52